Time;durP1;ratioP1;P1;durP2;ratioP2;P2;SDS_P1;SDS_P2;PMS_P1;PMS_P2;Temp;Humidity;BMP_temperature;BMP_pressure;BME280_temperature;BME280_humidity;BME280_pressure;Samples;Min_cycle;Max_cycle;Signal;HPM_P1;HPM_P2
2022/07/12 00:01:35;;;;;;;5.15;2.67;;;;;;;16.03;100.00;98101.94;5089693;28;20052;-51
2022/07/12 00:04:01;;;;;;;3.55;2.28;;;;;;;16.00;100.00;98096.06;5089408;28;20063;-51
2022/07/12 00:06:28;;;;;;;5.68;2.33;;;;;;;15.70;100.00;98086.03;5089551;28;20146;-51
2022/07/12 00:08:54;;;;;;;4.30;2.40;;;;;;;15.90;100.00;98082.50;5089367;28;20052;-53
2022/07/12 00:11:21;;;;;;;4.57;2.20;;;;;;;15.96;100.00;98070.50;5089395;28;20044;-53
2022/07/12 00:13:47;;;;;;;4.65;2.67;;;;;;;15.82;100.00;98059.72;5089419;28;20052;-51
2022/07/12 00:16:13;;;;;;;6.72;2.30;;;;;;;15.64;100.00;98053.78;5089324;28;20147;-50
2022/07/12 00:18:40;;;;;;;3.30;2.53;;;;;;;15.87;100.00;98050.19;5089287;28;20048;-50
2022/07/12 00:21:07;;;;;;;2.70;2.38;;;;;;;15.94;100.00;98038.97;5091421;28;20048;-53
2022/07/12 00:23:34;;;;;;;3.95;2.40;;;;;;;15.87;100.00;98039.91;5092857;28;20056;-50
2022/07/12 00:26:04;;;;;;;5.50;2.92;;;;;;;15.94;100.00;98039.72;5092642;28;20066;-51
2022/07/12 00:28:30;;;;;;;4.70;2.60;;;;;;;15.56;100.00;98033.81;5092596;28;20055;-53
2022/07/12 00:30:57;;;;;;;6.38;2.88;;;;;;;15.82;100.00;98029.31;5092500;28;20560;-50
2022/07/12 00:33:23;;;;;;;5.20;2.28;;;;;;;15.74;100.00;98020.41;5092714;28;20131;-51
2022/07/12 00:35:49;;;;;;;2.10;1.90;;;;;;;15.84;100.00;98009.56;5092516;28;20063;-51
2022/07/12 00:38:16;;;;;;;5.65;2.70;;;;;;;15.92;100.00;98010.97;5092415;28;20567;-50
2022/07/12 00:40:42;;;;;;;3.60;2.28;;;;;;;15.89;100.00;98014.59;5092410;28;20098;-52
2022/07/12 00:43:09;;;;;;;8.15;2.53;;;;;;;15.64;100.00;97996.53;5092294;28;20056;-50
2022/07/12 00:45:35;;;;;;;5.45;2.65;;;;;;;15.67;100.00;97995.72;5092269;28;20507;-50
2022/07/12 00:48:01;;;;;;;4.13;2.70;;;;;;;15.70;100.00;97980.28;5092170;28;20084;-50
2022/07/12 00:50:28;;;;;;;6.00;2.50;;;;;;;15.72;100.00;97961.25;5092235;28;20142;-50
2022/07/12 00:52:55;;;;;;;6.10;2.40;;;;;;;15.59;100.00;97963.88;5092568;28;20052;-50
2022/07/12 00:55:23;;;;;;;5.93;2.70;;;;;;;15.59;100.00;97957.56;5092415;28;20052;-51
2022/07/12 00:57:50;;;;;;;7.43;2.55;;;;;;;15.59;100.00;97943.75;5092089;28;20058;-52
2022/07/12 01:00:18;;;;;;;2.78;2.30;;;;;;;15.72;100.00;97934.41;5092293;28;20067;-52
2022/07/12 01:02:46;;;;;;;10.82;2.50;;;;;;;15.53;100.00;97933.22;5092083;28;20129;-51
2022/07/12 01:05:12;;;;;;;2.20;2.00;;;;;;;15.25;100.00;97936.59;5092329;28;20155;-50
2022/07/12 01:07:39;;;;;;;3.08;2.10;;;;;;;15.44;100.00;97921.22;5092024;28;20052;-49
2022/07/12 01:10:07;;;;;;;4.20;2.00;;;;;;;15.36;100.00;97914.28;5092066;28;20139;-52
2022/07/12 01:12:34;;;;;;;3.58;2.10;;;;;;;15.53;100.00;97913.13;5092032;28;20071;-52
2022/07/12 01:15:04;;;;;;;8.43;2.45;;;;;;;15.58;100.00;97907.06;5091810;28;20098;-50
2022/07/12 01:17:30;;;;;;;3.10;1.90;;;;;;;15.51;100.00;97916.31;5091972;28;20056;-52
2022/07/12 01:19:58;;;;;;;4.18;2.08;;;;;;;15.60;100.00;97914.94;5091910;28;20525;-49
2022/07/12 01:22:27;;;;;;;3.75;2.80;;;;;;;15.44;100.00;97910.94;5092152;28;20135;-51
2022/07/12 01:24:54;;;;;;;2.20;1.98;;;;;;;15.53;100.00;97902.06;5091788;28;20089;-49
2022/07/12 01:27:21;;;;;;;3.55;2.25;;;;;;;15.17;100.00;97893.78;5092043;28;20043;-51
2022/07/12 01:29:47;;;;;;;5.03;2.50;;;;;;;15.25;100.00;97879.38;5091501;28;20056;-50
2022/07/12 01:32:25;;;;;;;2.70;2.22;;;;;;;15.09;100.00;97867.50;5091294;28;20475;-53
2022/07/12 01:34:53;;;;;;;1.67;1.58;;;;;;;15.33;100.00;97868.97;5091700;28;20134;-49
2022/07/12 01:37:20;;;;;;;3.08;2.00;;;;;;;15.36;100.00;97859.03;5091775;28;20189;-50
2022/07/12 01:39:48;;;;;;;1.92;1.83;;;;;;;15.29;100.00;97846.16;5091829;28;20052;-52
2022/07/12 01:42:15;;;;;;;2.58;2.00;;;;;;;15.33;100.00;97863.47;5091587;28;20613;-53
2022/07/12 01:44:42;;;;;;;2.25;2.00;;;;;;;15.20;100.00;97834.97;5091895;28;20379;-54
2022/07/12 01:47:08;;;;;;;2.10;1.90;;;;;;;15.28;100.00;97831.59;5091779;28;20090;-49
2022/07/12 01:49:34;;;;;;;4.28;2.17;;;;;;;15.13;100.00;97827.59;5091963;28;20140;-53
2022/07/12 01:52:01;;;;;;;2.85;2.33;;;;;;;15.14;100.00;97828.38;5091583;28;20141;-50
2022/07/12 01:54:27;;;;;;;2.38;1.73;;;;;;;14.94;100.00;97818.16;5091131;28;20055;-49
2022/07/12 01:56:54;;;;;;;2.55;2.08;;;;;;;15.01;100.00;97795.91;5091167;28;20587;-50
2022/07/12 01:59:22;;;;;;;2.45;2.20;;;;;;;15.07;100.00;97791.44;5091433;28;20047;-51
2022/07/12 02:01:48;;;;;;;3.53;2.67;;;;;;;15.15;100.00;97789.28;5091487;28;20120;-50
2022/07/12 02:04:17;;;;;;;3.08;1.88;;;;;;;14.88;100.00;97789.50;5091009;28;20082;-50
2022/07/12 02:06:45;;;;;;;2.00;1.90;;;;;;;15.00;100.00;97782.56;5091464;28;20624;-51
2022/07/12 02:09:11;;;;;;;2.40;1.98;;;;;;;15.11;100.00;97776.78;5091015;28;20469;-50
2022/07/12 02:11:38;;;;;;;4.88;2.53;;;;;;;14.91;100.00;97774.06;5091628;28;20059;-49
2022/07/12 02:14:04;;;;;;;2.03;1.90;;;;;;;14.75;100.00;97752.72;5091095;28;20048;-49
2022/07/12 02:16:31;;;;;;;2.97;1.83;;;;;;;14.92;100.00;97745.28;5090853;28;20092;-50
2022/07/12 02:18:58;;;;;;;3.58;2.30;;;;;;;15.02;100.00;97738.72;5090855;28;20419;-50
2022/07/12 02:21:24;;;;;;;3.15;2.00;;;;;;;15.01;100.00;97728.91;5091095;28;20048;-51
2022/07/12 02:23:50;;;;;;;2.90;1.70;;;;;;;15.09;100.00;97737.78;5090729;28;20087;-50
2022/07/12 02:26:17;;;;;;;2.20;2.00;;;;;;;15.00;100.00;97728.13;5091032;28;20578;-50
2022/07/12 02:28:43;;;;;;;5.15;2.15;;;;;;;14.97;100.00;97723.47;5090711;28;20499;-51
2022/07/12 02:31:10;;;;;;;4.07;2.15;;;;;;;15.17;100.00;97719.88;5090836;28;20167;-51
2022/07/12 02:33:37;;;;;;;2.38;1.98;;;;;;;14.96;100.00;97721.94;5090797;28;20135;-51
2022/07/12 02:36:04;;;;;;;4.85;2.20;;;;;;;14.77;100.00;97695.94;5090492;28;20083;-50
2022/07/12 02:38:30;;;;;;;2.80;1.98;;;;;;;14.93;100.00;97708.22;5090532;28;20048;-53
2022/07/12 02:40:56;;;;;;;2.67;2.13;;;;;;;15.06;100.00;97709.88;5090448;28;20143;-54
2022/07/12 02:43:24;;;;;;;3.22;2.10;;;;;;;14.96;100.00;97710.09;5089472;28;20495;-54
2022/07/12 02:45:50;;;;;;;2.28;2.05;;;;;;;15.06;100.00;97695.25;5090303;28;20063;-54
2022/07/12 02:48:17;;;;;;;6.95;2.30;;;;;;;14.80;100.00;97705.34;5090677;28;20083;-53
2022/07/12 02:50:44;;;;;;;2.70;2.50;;;;;;;15.09;100.00;97699.16;5090397;28;20048;-53
2022/07/12 02:53:10;;;;;;;2.10;2.00;;;;;;;15.13;100.00;97686.03;5090580;28;20044;-53
2022/07/12 02:55:37;;;;;;;2.30;2.08;;;;;;;15.15;100.00;97695.44;5090441;28;20223;-54
2022/07/12 02:58:05;;;;;;;2.40;2.20;;;;;;;15.10;100.00;97706.25;5090416;28;20060;-53
2022/07/12 03:00:32;;;;;;;2.03;1.92;;;;;;;14.98;100.00;97689.16;5090222;28;20080;-54
2022/07/12 03:02:58;;;;;;;2.90;2.33;;;;;;;14.89;100.00;97668.88;5090144;28;20075;-53
2022/07/12 03:05:25;;;;;;;3.72;2.20;;;;;;;14.95;100.00;97659.66;5090194;28;20048;-54
2022/07/12 03:07:52;;;;;;;4.20;2.33;;;;;;;14.95;100.00;97667.94;5090110;28;20090;-53
2022/07/12 03:10:18;;;;;;;6.10;2.45;;;;;;;14.95;100.00;97650.59;5090198;28;20412;-53
2022/07/12 03:12:44;;;;;;;5.45;2.10;;;;;;;14.96;100.00;97639.16;5089984;28;20043;-53
2022/07/12 03:15:11;;;;;;;5.63;2.20;;;;;;;14.98;100.00;97633.19;5090383;28;20102;-53
2022/07/12 03:17:37;;;;;;;2.90;2.60;;;;;;;15.06;100.00;97634.53;5090320;28;20048;-51
2022/07/12 03:20:05;;;;;;;3.80;2.30;;;;;;;14.99;100.00;97631.97;5089864;28;20047;-50
2022/07/12 03:22:32;;;;;;;2.58;2.22;;;;;;;14.98;100.00;97611.09;5090080;28;20086;-50
2022/07/12 03:24:59;;;;;;;2.45;2.25;;;;;;;15.01;100.00;97613.78;5090058;28;20084;-53
2022/07/12 03:27:25;;;;;;;3.45;2.17;;;;;;;15.13;100.00;97611.50;5089996;28;20052;-55
2022/07/12 03:29:51;;;;;;;3.35;2.28;;;;;;;14.92;100.00;97599.03;5090291;28;20048;-51
2022/07/12 03:32:19;;;;;;;3.22;2.28;;;;;;;15.04;100.00;97596.34;5090088;28;20135;-50
2022/07/12 03:34:45;;;;;;;2.25;1.90;;;;;;;14.99;100.00;97591.34;5089724;28;20574;-50
2022/07/12 03:37:12;;;;;;;4.05;1.90;;;;;;;15.15;100.00;97598.06;5090001;28;20052;-50
2022/07/12 03:39:38;;;;;;;4.95;2.22;;;;;;;15.10;100.00;97596.63;5089938;28;20052;-49
2022/07/12 03:42:05;;;;;;;2.70;2.35;;;;;;;15.01;100.00;97580.66;5090065;28;20135;-50
2022/07/12 03:44:31;;;;;;;2.63;2.05;;;;;;;15.06;100.00;97571.06;5089626;28;20093;-50
2022/07/12 03:46:58;;;;;;;2.83;2.00;;;;;;;14.93;100.00;97553.69;5089992;28;20102;-50
2022/07/12 03:49:24;;;;;;;5.18;1.73;;;;;;;14.96;100.00;97534.28;5089525;28;20063;-49
2022/07/12 03:51:51;;;;;;;8.05;2.17;;;;;;;14.89;100.00;97526.16;5089772;28;20392;-49
2022/07/12 03:54:17;;;;;;;4.85;2.63;;;;;;;15.01;100.00;97532.97;5090785;28;20048;-49
2022/07/12 03:59:28;;;;;;;2.90;2.17;;;;;;;14.85;100.00;97519.19;5093285;28;20063;-51
2022/07/12 04:01:54;;;;;;;2.17;2.00;;;;;;;14.65;100.00;97511.03;5093217;28;20547;-49
2022/07/12 04:04:21;;;;;;;7.53;2.08;;;;;;;14.83;100.00;97503.88;5093426;28;20736;-52
2022/07/12 04:06:47;;;;;;;3.35;2.28;;;;;;;14.90;100.00;97493.84;5093286;28;20893;-50
2022/07/12 04:09:13;;;;;;;4.95;2.30;;;;;;;14.70;100.00;97480.19;5093407;28;20452;-50
2022/07/12 04:11:40;;;;;;;4.22;3.00;;;;;;;14.91;100.00;97468.59;5093042;28;20058;-50
2022/07/12 04:14:06;;;;;;;4.30;2.33;;;;;;;14.93;100.00;97465.41;5093269;28;20048;-49
2022/07/12 04:16:33;;;;;;;10.50;3.25;;;;;;;15.01;100.00;97452.94;5092788;28;20589;-49
2022/07/12 04:18:59;;;;;;;9.02;2.40;;;;;;;14.98;100.00;97460.09;5093092;28;20048;-50
2022/07/12 04:21:25;;;;;;;3.05;2.03;;;;;;;14.87;100.00;97442.31;5092943;28;20051;-49
2022/07/12 04:23:52;;;;;;;4.47;2.33;;;;;;;14.96;100.00;97431.41;5092741;28;20590;-49
2022/07/12 04:26:18;;;;;;;2.45;2.17;;;;;;;14.89;100.00;97431.59;5092796;28;20434;-50
2022/07/12 04:28:44;;;;;;;3.65;2.35;;;;;;;15.08;100.00;97430.66;5092777;28;20462;-50
2022/07/12 04:31:10;;;;;;;3.17;2.20;;;;;;;14.93;100.00;97427.53;5092614;28;20048;-49
2022/07/12 04:33:37;;;;;;;4.20;1.90;;;;;;;14.99;100.00;97419.50;5092693;28;20524;-51
2022/07/12 04:36:04;;;;;;;12.00;2.10;;;;;;;14.86;100.00;97419.47;5092814;28;20526;-50
2022/07/12 04:38:30;;;;;;;4.60;1.60;;;;;;;14.94;100.00;97404.25;5092664;28;20056;-50
2022/07/12 04:40:56;;;;;;;2.80;2.60;;;;;;;14.90;100.00;97394.53;5092765;28;20479;-50
2022/07/12 04:43:24;;;;;;;4.68;1.80;;;;;;;14.91;100.00;97396.84;5092510;28;20048;-50
2022/07/12 04:45:50;;;;;;;4.15;1.60;;;;;;;15.05;100.00;97396.44;5092541;28;20055;-52
2022/07/12 04:48:16;;;;;;;1.60;1.50;;;;;;;15.04;100.00;97394.91;5092523;28;20048;-53
2022/07/12 04:50:43;;;;;;;2.95;1.70;;;;;;;14.98;100.00;97393.13;5092650;28;20153;-50
2022/07/12 04:53:10;;;;;;;4.95;1.75;;;;;;;15.06;100.00;97395.25;5092199;28;20048;-50
2022/07/12 04:55:36;;;;;;;3.38;1.50;;;;;;;15.13;100.00;97383.22;5092273;28;20499;-50
2022/07/12 04:58:04;;;;;;;2.95;2.20;;;;;;;14.94;100.00;97387.69;5092058;28;20507;-54
2022/07/12 05:00:31;;;;;;;4.88;1.70;;;;;;;15.03;100.00;97385.06;5092041;28;20058;-52
2022/07/12 05:02:57;;;;;;;4.22;1.40;;;;;;;15.05;100.00;97379.09;5092355;28;20419;-51
2022/07/12 05:05:23;;;;;;;1.30;1.20;;;;;;;15.01;100.00;97381.97;5091294;28;20143;-54
2022/07/12 05:07:50;;;;;;;2.58;1.20;;;;;;;14.96;100.00;97370.69;5092229;28;20501;-51
2022/07/12 05:10:16;;;;;;;1.77;1.27;;;;;;;14.77;100.00;97353.88;5091986;28;20142;-50
2022/07/12 05:12:43;;;;;;;10.50;2.13;;;;;;;14.96;100.00;97337.59;5091973;28;20141;-50
2022/07/12 05:15:09;;;;;;;1.30;1.20;;;;;;;14.93;100.00;97325.47;5092291;28;20106;-50
2022/07/12 05:17:36;;;;;;;1.42;1.33;;;;;;;15.01;100.00;97329.53;5091911;28;20612;-53
2022/07/12 05:20:02;;;;;;;5.40;1.83;;;;;;;14.94;100.00;97329.75;5091730;28;20048;-52
2022/07/12 05:22:29;;;;;;;1.70;1.45;;;;;;;15.09;100.00;97326.56;5092014;28;20148;-53
2022/07/12 05:24:55;;;;;;;1.75;1.45;;;;;;;15.10;100.00;97322.63;5091592;28;20507;-53
2022/07/12 05:27:22;;;;;;;3.85;1.38;;;;;;;15.00;100.00;97313.44;5091712;28;20431;-53
2022/07/12 05:29:48;;;;;;;5.57;2.10;;;;;;;15.13;100.00;97307.91;5091469;28;20048;-53
2022/07/12 05:32:14;;;;;;;8.18;1.80;;;;;;;15.13;100.00;97305.94;5091715;28;20044;-54
2022/07/12 05:34:40;;;;;;;1.90;1.67;;;;;;;15.17;100.00;97308.59;5091613;28;20058;-51
2022/07/12 05:37:07;;;;;;;2.08;1.70;;;;;;;15.14;100.00;97315.00;5091855;28;20515;-51
2022/07/12 05:39:33;;;;;;;1.65;1.20;;;;;;;15.19;100.00;97306.16;5091951;28;20105;-50
2022/07/12 05:42:00;;;;;;;8.48;7.13;;;;;;;15.11;100.00;97310.34;5091647;28;20479;-51
2022/07/12 05:44:26;;;;;;;1.83;1.20;;;;;;;15.25;100.00;97307.16;5091864;28;20469;-54
2022/07/12 05:46:52;;;;;;;1.73;1.33;;;;;;;15.19;100.00;97323.47;5091451;28;20138;-51
2022/07/12 05:49:19;;;;;;;2.45;1.50;;;;;;;14.97;100.00;97317.84;5091452;28;20139;-51
2022/07/12 05:54:29;;;;;;;1.70;1.15;;;;;;;15.12;100.00;97320.94;5091499;28;20767;-53
2022/07/12 05:56:55;;;;;;;1.45;1.35;;;;;;;15.11;100.00;97304.84;5091203;28;20062;-54
2022/07/12 05:59:22;;;;;;;3.15;1.17;;;;;;;15.10;100.00;97301.31;5091232;28;20143;-54
2022/07/12 06:01:48;;;;;;;1.42;0.95;;;;;;;15.12;100.00;97311.91;5091285;28;20048;-54
2022/07/12 06:04:14;;;;;;;5.13;1.33;;;;;;;15.06;100.00;97309.69;5090911;28;20083;-54
2022/07/12 06:06:41;;;;;;;2.35;1.40;;;;;;;15.12;100.00;97309.13;5091036;28;20054;-51
2022/07/12 06:09:07;;;;;;;1.60;1.50;;;;;;;15.30;100.00;97296.34;5091148;28;20044;-54
2022/07/12 06:11:33;;;;;;;3.40;1.50;;;;;;;15.23;100.00;97304.06;5091059;28;20044;-51
2022/07/12 06:13:59;;;;;;;2.20;1.80;;;;;;;15.18;100.00;97304.63;5090975;28;20063;-53
2022/07/12 06:16:27;;;;;;;1.35;1.25;;;;;;;15.05;100.00;97293.56;5090885;28;20052;-52
2022/07/12 06:18:53;;;;;;;1.00;1.00;;;;;;;15.10;100.00;97292.25;5091019;28;20052;-51
2022/07/12 06:21:19;;;;;;;2.25;1.52;;;;;;;15.27;100.00;97280.66;5090607;28;20048;-53
2022/07/12 06:23:45;;;;;;;2.40;1.50;;;;;;;15.31;100.00;97275.03;5090551;28;20411;-55
2022/07/12 06:26:12;;;;;;;9.32;1.20;;;;;;;15.37;100.00;97273.25;5090617;28;20438;-52
2022/07/12 06:28:38;;;;;;;2.38;1.25;;;;;;;15.49;100.00;97274.44;5090523;28;20050;-51
2022/07/12 06:31:04;;;;;;;0.82;0.82;;;;;;;15.36;100.00;97271.72;5090425;28;20135;-54
2022/07/12 06:33:32;;;;;;;1.50;1.17;;;;;;;15.48;100.00;97262.63;5090647;28;20044;-54
2022/07/12 06:35:58;;;;;;;3.90;1.77;;;;;;;15.31;100.00;97255.69;5090287;28;20143;-52
2022/07/12 06:38:24;;;;;;;1.02;1.02;;;;;;;15.34;100.00;97254.06;5090606;28;20048;-54
2022/07/12 06:40:51;;;;;;;1.30;1.08;;;;;;;15.37;100.00;97247.66;5090359;28;20083;-54
2022/07/12 06:43:17;;;;;;;2.22;1.30;;;;;;;15.34;100.00;97243.78;5090516;28;20185;-51
2022/07/12 06:45:43;;;;;;;0.80;0.80;;;;;;;15.32;100.00;97257.25;5090159;28;20135;-54
2022/07/12 06:48:09;;;;;;;0.85;0.85;;;;;;;15.05;100.00;97255.69;5090476;28;20112;-55
2022/07/12 06:50:36;;;;;;;1.25;1.15;;;;;;;15.27;100.00;97253.06;5090442;28;20147;-52
2022/07/12 06:53:03;;;;;;;2.78;1.10;;;;;;;15.51;100.00;97263.75;5090761;28;20135;-51
2022/07/12 06:55:30;;;;;;;1.40;1.30;;;;;;;15.36;100.00;97263.44;5090607;28;20632;-57
2022/07/12 06:57:56;;;;;;;2.70;1.00;;;;;;;15.16;100.00;97255.38;5090393;28;20113;-57
2022/07/12 07:00:23;;;;;;;1.48;1.10;;;;;;;15.65;100.00;97245.94;5090661;28;20048;-57
2022/07/12 07:02:49;;;;;;;2.40;1.00;;;;;;;15.70;100.00;97256.47;5090283;28;20055;-60
2022/07/12 07:05:17;;;;;;;1.60;0.85;;;;;;;15.87;100.00;97257.06;5090289;28;20518;-60
2022/07/12 07:07:44;;;;;;;1.27;0.93;;;;;;;16.00;100.00;97268.88;5090383;28;20565;-61
2022/07/12 07:10:11;;;;;;;1.00;0.90;;;;;;;15.81;100.00;97273.44;5090480;28;20119;-53
2022/07/12 07:12:37;;;;;;;0.80;0.80;;;;;;;15.91;100.00;97279.81;5090023;28;20146;-57
2022/07/12 07:15:04;;;;;;;0.75;0.73;;;;;;;15.86;100.00;97281.19;5090074;28;20051;-57
2022/07/12 07:17:30;;;;;;;0.68;0.68;;;;;;;16.07;100.00;97284.44;5090072;28;20091;-59
2022/07/12 07:19:56;;;;;;;0.95;0.85;;;;;;;15.95;100.00;97294.28;5089837;28;20135;-60
2022/07/12 07:22:23;;;;;;;0.73;0.70;;;;;;;15.96;100.00;97304.13;5090140;28;20522;-57
2022/07/12 07:24:50;;;;;;;1.15;0.80;;;;;;;15.91;100.00;97310.22;5089834;28;20078;-55
2022/07/12 07:27:16;;;;;;;4.15;1.90;;;;;;;15.87;100.00;97309.56;5089994;28;20056;-51
2022/07/12 07:32:26;;;;;;;;;;;;;;;15.88;100.00;97306.34;5090561;28;20081;-56
2022/07/12 07:34:52;;;;;;;0.73;0.73;;;;;;;15.81;100.00;97303.84;5089652;28;20381;-52
2022/07/12 07:37:19;;;;;;;2.65;1.90;;;;;;;15.76;100.00;97293.34;5089898;28;20484;-52
2022/07/12 07:39:45;;;;;;;2.22;0.85;;;;;;;15.74;100.00;97293.03;5089502;28;20467;-54
2022/07/12 07:42:12;;;;;;;0.77;0.63;;;;;;;15.76;100.00;97285.03;5089834;28;20536;-54
2022/07/12 07:44:38;;;;;;;0.50;0.50;;;;;;;15.83;100.00;97290.34;5089527;28;20078;-52
2022/07/12 07:47:04;;;;;;;2.35;1.10;;;;;;;15.90;100.00;97287.34;5089704;28;20063;-51
2022/07/12 07:49:31;;;;;;;0.85;0.85;;;;;;;15.77;100.00;97279.09;5089314;28;20139;-54
2022/07/12 07:51:57;;;;;;;4.10;0.80;;;;;;;15.94;100.00;97285.22;5089455;28;20063;-55
2022/07/12 07:54:23;;;;;;;2.47;1.00;;;;;;;15.84;100.00;97280.84;5089509;28;20134;-55
2022/07/12 07:56:49;;;;;;;1.88;0.80;;;;;;;15.90;100.00;97273.53;5089326;28;20136;-57
2022/07/12 07:59:16;;;;;;;1.13;0.80;;;;;;;15.86;100.00;97278.41;5089631;28;20140;-55
2022/07/12 08:01:44;;;;;;;0.65;0.60;;;;;;;15.85;100.00;97279.63;5089198;28;20136;-56
2022/07/12 08:04:11;;;;;;;3.10;1.02;;;;;;;16.09;100.00;97259.88;5089686;28;20048;-54
2022/07/12 08:06:37;;;;;;;0.60;0.60;;;;;;;16.03;100.00;97265.22;5089074;28;20499;-55
2022/07/12 08:09:04;;;;;;;3.03;1.10;;;;;;;16.06;100.00;97267.09;5089450;28;20134;-55
2022/07/12 08:11:30;;;;;;;1.67;1.10;;;;;;;15.95;100.00;97275.72;5089148;28;20155;-58
2022/07/12 08:13:57;;;;;;;1.48;1.38;;;;;;;16.08;100.00;97280.44;5088995;28;20071;-53
2022/07/12 08:16:24;;;;;;;2.00;0.88;;;;;;;15.90;100.00;97273.53;5088849;28;20139;-59
2022/07/12 08:18:50;;;;;;;1.40;0.90;;;;;;;15.84;100.00;97271.78;5089308;28;20080;-59
2022/07/12 08:21:16;;;;;;;1.48;0.80;;;;;;;15.94;100.00;97268.66;5089177;28;20102;-59
2022/07/12 08:23:42;;;;;;;2.00;0.80;;;;;;;15.68;100.00;97278.22;5089195;28;20500;-59
2022/07/12 08:26:09;;;;;;;3.25;0.90;;;;;;;15.95;100.00;97278.47;5089390;28;20094;-59
2022/07/12 08:28:35;;;;;;;0.82;0.80;;;;;;;15.94;100.00;97270.66;5089187;28;20063;-59
2022/07/12 08:31:01;;;;;;;2.30;0.68;;;;;;;15.98;100.00;97263.78;5089480;28;20051;-59
2022/07/12 08:33:29;;;;;;;0.50;0.50;;;;;;;15.84;100.00;97258.75;5088882;28;20502;-59
2022/07/12 08:35:55;;;;;;;1.80;1.42;;;;;;;15.88;100.00;97264.91;5089123;28;20056;-59
2022/07/12 08:38:21;;;;;;;2.53;1.10;;;;;;;15.96;100.00;97262.66;5088821;28;20055;-59
2022/07/12 08:40:48;;;;;;;0.65;0.65;;;;;;;16.00;100.00;97258.59;5089439;28;20522;-59
2022/07/12 08:43:15;;;;;;;0.57;0.57;;;;;;;15.82;100.00;97257.63;5092537;28;20518;-59
2022/07/12 08:45:41;;;;;;;1.65;0.60;;;;;;;16.01;100.00;97245.53;5092357;28;20058;-59
2022/07/12 08:48:08;;;;;;;1.35;0.77;;;;;;;15.91;100.00;97257.72;5091980;28;20422;-59
2022/07/12 08:50:35;;;;;;;1.73;0.65;;;;;;;15.97;100.00;97239.34;5092291;28;20112;-59
2022/07/12 08:53:02;;;;;;;1.83;0.45;;;;;;;15.95;100.00;97248.09;5092385;28;20121;-59
2022/07/12 08:55:30;;;;;;;0.82;0.60;;;;;;;16.05;100.00;97245.41;5092109;28;20495;-59
2022/07/12 08:57:58;;;;;;;2.08;0.70;;;;;;;16.05;100.00;97246.16;5092315;28;20052;-59
2022/07/12 09:00:26;;;;;;;0.63;0.63;;;;;;;16.18;100.00;97252.41;5092004;28;20058;-59
2022/07/12 09:02:54;;;;;;;3.38;0.60;;;;;;;15.80;100.00;97237.97;5092495;28;20427;-59
2022/07/12 09:05:21;;;;;;;0.60;0.60;;;;;;;16.11;100.00;97238.09;5091915;28;20048;-59
2022/07/12 09:07:49;;;;;;;1.65;0.70;;;;;;;16.26;100.00;97230.84;5092188;28;20067;-59
2022/07/12 09:10:15;;;;;;;4.82;0.75;;;;;;;16.22;100.00;97239.25;5092046;28;20056;-59
2022/07/12 09:12:42;;;;;;;0.82;0.50;;;;;;;16.41;100.00;97242.91;5092400;28;20541;-59
2022/07/12 09:15:17;;;;;;;0.60;0.60;;;;;;;16.35;100.00;97255.78;5091976;28;20052;-59
2022/07/12 09:17:54;;;;;;;0.55;0.50;;;;;;;16.32;100.00;97262.19;5091996;28;20419;-59
2022/07/12 09:20:21;;;;;;;0.68;0.68;;;;;;;16.39;100.00;97258.41;5092072;28;20052;-59
2022/07/12 09:22:53;;;;;;;0.93;0.70;;;;;;;16.45;100.00;97264.91;5091600;28;20056;-59
2022/07/12 09:25:19;;;;;;;1.10;0.80;;;;;;;16.20;100.00;97269.34;5091795;28;20056;-59
2022/07/12 09:27:51;;;;;;;3.38;0.60;;;;;;;16.37;100.00;97263.63;5091571;28;20048;-59
2022/07/12 09:30:18;;;;;;;3.67;0.70;;;;;;;16.45;100.00;97237.25;5091711;28;20051;-59
2022/07/12 09:38:28;;;;;;;0.80;0.80;;;;;;;16.32;100.00;97262.19;5091537;28;20104;-59
2022/07/12 09:40:55;;;;;;;1.95;0.63;;;;;;;16.44;100.00;97252.31;5091461;28;20404;-59
2022/07/12 09:43:23;;;;;;;1.67;0.90;;;;;;;16.29;100.00;97254.03;5091324;28;20541;-59
2022/07/12 09:45:50;;;;;;;4.68;0.70;;;;;;;16.44;100.00;97247.53;5091361;28;20088;-59
2022/07/12 09:48:17;;;;;;;0.50;0.50;;;;;;;16.24;100.00;97250.63;5091372;28;20048;-59
2022/07/12 09:50:47;;;;;;;2.67;0.73;;;;;;;16.43;100.00;97245.25;5091485;28;20121;-59
2022/07/12 09:53:20;;;;;;;1.38;0.63;;;;;;;16.45;100.00;97238.03;5090990;28;20063;-60
2022/07/12 09:55:50;;;;;;;1.33;0.65;;;;;;;16.44;100.00;97247.53;5091340;28;20051;-59
2022/07/12 09:58:27;;;;;;;0.70;0.50;;;;;;;16.49;100.00;97248.94;5091081;28;20113;-60
2022/07/12 10:00:54;;;;;;;0.68;0.63;;;;;;;16.19;100.00;97247.66;5091387;28;20123;-59
2022/07/12 10:03:24;;;;;;;3.22;1.73;;;;;;;16.57;100.00;97238.41;5091001;28;20069;-60
2022/07/12 10:05:51;;;;;;;1.05;0.70;;;;;;;16.21;100.00;97248.75;5091408;28;20055;-60
2022/07/12 10:08:19;;;;;;;0.80;0.63;;;;;;;16.13;100.00;97255.78;5090758;28;20055;-58
2022/07/12 10:10:46;;;;;;;0.50;0.50;;;;;;;15.85;100.00;97245.69;5090880;28;20136;-58
2022/07/12 10:13:13;;;;;;;1.65;0.60;;;;;;;16.39;100.00;97236.28;5091350;28;20105;-59
2022/07/12 10:15:43;;;;;;;1.10;0.60;;;;;;;16.36;100.00;97240.75;5090965;28;20052;-58
2022/07/12 10:18:16;;;;;;;1.00;0.70;;;;;;;16.83;100.00;97234.28;5091103;28;20083;-58
2022/07/12 10:20:43;;;;;;;0.65;0.65;;;;;;;16.78;100.00;97248.69;5090590;28;20101;-58
2022/07/12 10:23:30;;;;;;;1.30;1.05;;;;;;;16.54;100.00;97264.97;5090729;28;20048;-58
2022/07/12 10:25:58;;;;;;;1.08;0.68;;;;;;;16.45;100.00;97270.44;5090521;28;20087;-58
2022/07/12 10:29:10;;;;;;;6.85;3.92;;;;;;;16.30;100.00;97261.91;5090674;28;20059;-59
2022/07/12 10:31:39;;;;;;;1.23;0.70;;;;;;;16.27;100.00;97270.31;5054542;28;20131;-59
2022/07/12 10:34:20;;;;;;;0.60;0.60;;;;;;;16.47;100.00;97262.47;5090553;28;20056;-59
2022/07/12 10:37:12;;;;;;;1.15;0.80;;;;;;;16.58;100.00;97259.31;5090534;28;20059;-59
2022/07/12 10:39:38;;;;;;;0.60;0.60;;;;;;;16.38;100.00;97251.34;5090367;28;20052;-59
2022/07/12 10:42:18;;;;;;;1.00;0.70;;;;;;;16.81;100.00;97255.34;5090479;28;20576;-60
2022/07/12 10:44:47;;;;;;;2.85;1.00;;;;;;;16.74;100.00;97248.03;5090863;28;20056;-60
2022/07/12 10:47:16;;;;;;;2.88;0.90;;;;;;;16.56;100.00;97247.91;5090348;28;20051;-60
2022/07/12 10:49:52;;;;;;;1.20;0.80;;;;;;;16.81;100.00;97256.09;5090620;28;20047;-60
2022/07/12 10:52:26;;;;;;;1.50;0.75;;;;;;;17.13;100.00;97270.72;5090176;28;20055;-60
2022/07/12 10:55:17;;;;;;;2.78;0.85;;;;;;;17.02;100.00;97278.66;5090712;28;20055;-58
2022/07/12 10:57:46;;;;;;;2.20;0.88;;;;;;;16.95;100.00;97263.09;5090164;28;20052;-58
2022/07/12 11:00:14;;;;;;;1.10;0.60;;;;;;;16.94;100.00;97284.47;5090191;28;20507;-59
2022/07/12 11:02:41;;;;;;;3.17;1.55;;;;;;;17.15;100.00;97295.94;5090061;28;20058;-59
2022/07/12 11:05:08;;;;;;;3.90;1.20;;;;;;;17.01;100.00;97300.03;5089264;28;20059;-58
2022/07/12 11:07:35;;;;;;;6.07;1.70;;;;;;;17.15;100.00;97293.94;5090127;28;20071;-60
2022/07/12 11:10:02;;;;;;;3.08;2.10;;;;;;;16.62;100.00;97295.91;5090074;28;20075;-60
2022/07/12 11:12:29;;;;;;;3.47;2.30;;;;;;;16.84;100.00;97279.34;5090283;28;20397;-60
2022/07/12 11:14:56;;;;;;;2.63;1.50;;;;;;;16.69;100.00;97267.97;5089935;28;20048;-60
2022/07/12 11:17:26;;;;;;;5.35;1.50;;;;;;;16.39;100.00;97258.41;5090296;28;20578;-59
2022/07/12 11:20:05;;;;;;;2.42;1.92;;;;;;;16.97;100.00;97257.13;5089881;28;20082;-60
2022/07/12 11:22:31;;;;;;;3.33;2.33;;;;;;;16.93;100.00;97252.47;5090129;28;20139;-60
2022/07/12 11:24:59;;;;;;;7.68;5.03;;;;;;;16.92;100.00;97253.69;5089805;28;20047;-60
2022/07/12 11:27:26;;;;;;;5.45;3.25;;;;;;;16.93;100.00;97246.19;5089967;28;20058;-60
2022/07/12 11:29:59;;;;;;;7.60;5.07;;;;;;;17.10;100.00;97266.88;5089968;28;20082;-60
2022/07/12 11:32:37;;;;;;;12.20;5.68;;;;;;;17.02;100.00;97246.19;5089880;28;20051;-60
2022/07/12 11:35:05;;;;;;;8.48;5.35;;;;;;;17.18;100.00;97257.03;5089947;28;20138;-60
2022/07/12 11:37:31;;;;;;;7.85;4.90;;;;;;;16.94;100.00;97267.09;5089668;28;20056;-60
2022/07/12 11:39:57;;;;;;;5.18;3.72;;;;;;;17.01;100.00;97268.81;5089577;28;20083;-60